Terminal Aerodrome Forecast
Issued by NWS Houston/Galveston, TX

Home | Current Version | Previous Version | Text Only | Print | Product List | Glossary On
Versions: 1 2 3 4 5 6 7 8 9 10 11 12 13 14 15 16 17 18 19
000
FTUS44 KHGX 170522
TAFGLS
TAF
KGLS 170522Z 1706/1806 11010KT P6SM FEW015 BKN025 BKN250
     FM171500 09013KT P6SM SCT025 BKN035 BKN250
     FM180200 07006KT P6SM BKN050=

USA.gov is the U.S. government's official web portal to all federal, state and local government web resources and services.